sensor_id;sensor_type;location;lat;lon;timestamp;P1;durP1;ratioP1;P2;durP2;ratioP2
69998;SDS011;57339;52.156;5.372;2024-03-06T00:00:08;68.35;;;36.58;;
69998;SDS011;57339;52.156;5.372;2024-03-06T00:02:36;73.43;;;37.78;;
69998;SDS011;57339;52.156;5.372;2024-03-06T00:05:03;65.43;;;37.10;;
69998;SDS011;57339;52.156;5.372;2024-03-06T00:07:30;65.77;;;36.10;;
69998;SDS011;57339;52.156;5.372;2024-03-06T00:09:57;64.25;;;33.80;;
69998;SDS011;57339;52.156;5.372;2024-03-06T00:12:24;64.22;;;34.67;;
69998;SDS011;57339;52.156;5.372;2024-03-06T00:14:51;60.85;;;33.92;;
69998;SDS011;57339;52.156;5.372;2024-03-06T00:17:18;59.47;;;33.70;;
69998;SDS011;57339;52.156;5.372;2024-03-06T00:19:45;60.33;;;33.90;;
69998;SDS011;57339;52.156;5.372;2024-03-06T00:22:11;65.20;;;35.60;;
69998;SDS011;57339;52.156;5.372;2024-03-06T00:24:38;64.72;;;35.33;;
69998;SDS011;57339;52.156;5.372;2024-03-06T00:27:05;65.57;;;35.75;;
69998;SDS011;57339;52.156;5.372;2024-03-06T00:29:32;63.65;;;35.60;;
69998;SDS011;57339;52.156;5.372;2024-03-06T00:31:59;64.23;;;35.50;;
69998;SDS011;57339;52.156;5.372;2024-03-06T00:34:26;60.75;;;34.75;;
69998;SDS011;57339;52.156;5.372;2024-03-06T00:36:53;59.83;;;34.50;;
69998;SDS011;57339;52.156;5.372;2024-03-06T00:39:20;61.97;;;34.90;;
69998;SDS011;57339;52.156;5.372;2024-03-06T00:41:47;62.80;;;34.88;;
69998;SDS011;57339;52.156;5.372;2024-03-06T00:44:14;63.30;;;34.43;;
69998;SDS011;57339;52.156;5.372;2024-03-06T00:46:42;65.13;;;34.60;;
69998;SDS011;57339;52.156;5.372;2024-03-06T00:49:09;61.00;;;34.22;;
69998;SDS011;57339;52.156;5.372;2024-03-06T00:51:35;61.53;;;33.22;;
69998;SDS011;57339;52.156;5.372;2024-03-06T00:54:13;66.72;;;34.97;;
69998;SDS011;57339;52.156;5.372;2024-03-06T00:56:42;62.20;;;34.90;;
69998;SDS011;57339;52.156;5.372;2024-03-06T00:59:09;66.20;;;34.17;;
69998;SDS011;57339;52.156;5.372;2024-03-06T01:01:36;60.08;;;33.20;;
69998;SDS011;57339;52.156;5.372;2024-03-06T01:04:03;59.15;;;32.47;;
69998;SDS011;57339;52.156;5.372;2024-03-06T01:06:30;62.45;;;34.38;;
69998;SDS011;57339;52.156;5.372;2024-03-06T01:08:57;62.23;;;32.97;;
69998;SDS011;57339;52.156;5.372;2024-03-06T01:11:24;62.08;;;33.58;;
69998;SDS011;57339;52.156;5.372;2024-03-06T01:13:51;59.90;;;32.63;;
69998;SDS011;57339;52.156;5.372;2024-03-06T01:16:18;65.57;;;33.40;;
69998;SDS011;57339;52.156;5.372;2024-03-06T01:18:45;61.50;;;33.53;;
69998;SDS011;57339;52.156;5.372;2024-03-06T01:21:12;65.47;;;34.80;;
69998;SDS011;57339;52.156;5.372;2024-03-06T01:23:39;67.60;;;35.80;;
69998;SDS011;57339;52.156;5.372;2024-03-06T01:26:06;68.47;;;37.38;;
69998;SDS011;57339;52.156;5.372;2024-03-06T01:28:33;63.78;;;34.75;;
69998;SDS011;57339;52.156;5.372;2024-03-06T01:31:00;69.28;;;36.20;;
69998;SDS011;57339;52.156;5.372;2024-03-06T01:33:27;72.93;;;37.27;;
69998;SDS011;57339;52.156;5.372;2024-03-06T01:35:53;64.88;;;32.67;;
69998;SDS011;57339;52.156;5.372;2024-03-06T01:38:20;63.78;;;33.38;;
69998;SDS011;57339;52.156;5.372;2024-03-06T01:40:47;68.82;;;35.58;;
69998;SDS011;57339;52.156;5.372;2024-03-06T01:43:21;64.72;;;35.78;;
69998;SDS011;57339;52.156;5.372;2024-03-06T01:45:49;68.17;;;35.53;;
69998;SDS011;57339;52.156;5.372;2024-03-06T01:48:18;65.22;;;33.45;;
69998;SDS011;57339;52.156;5.372;2024-03-06T01:50:49;68.63;;;36.03;;
69998;SDS011;57339;52.156;5.372;2024-03-06T01:53:16;69.82;;;37.35;;
69998;SDS011;57339;52.156;5.372;2024-03-06T01:55:44;70.40;;;36.20;;
69998;SDS011;57339;52.156;5.372;2024-03-06T01:58:12;74.47;;;36.90;;
69998;SDS011;57339;52.156;5.372;2024-03-06T02:00:39;70.75;;;35.80;;
69998;SDS011;57339;52.156;5.372;2024-03-06T02:03:06;69.88;;;36.20;;
69998;SDS011;57339;52.156;5.372;2024-03-06T02:05:33;68.05;;;33.13;;
69998;SDS011;57339;52.156;5.372;2024-03-06T02:08:01;70.75;;;35.30;;
69998;SDS011;57339;52.156;5.372;2024-03-06T02:10:29;71.80;;;34.37;;
69998;SDS011;57339;52.156;5.372;2024-03-06T02:12:56;72.40;;;36.22;;
69998;SDS011;57339;52.156;5.372;2024-03-06T02:15:23;71.53;;;35.22;;
69998;SDS011;57339;52.156;5.372;2024-03-06T02:17:50;72.55;;;36.35;;
69998;SDS011;57339;52.156;5.372;2024-03-06T02:20:21;70.28;;;36.15;;
69998;SDS011;57339;52.156;5.372;2024-03-06T02:22:51;74.17;;;36.30;;
69998;SDS011;57339;52.156;5.372;2024-03-06T02:25:18;69.68;;;35.25;;
69998;SDS011;57339;52.156;5.372;2024-03-06T02:27:46;76.32;;;35.83;;
69998;SDS011;57339;52.156;5.372;2024-03-06T02:30:13;72.90;;;36.90;;
69998;SDS011;57339;52.156;5.372;2024-03-06T02:32:40;72.30;;;36.88;;
69998;SDS011;57339;52.156;5.372;2024-03-06T02:35:07;75.10;;;36.70;;
69998;SDS011;57339;52.156;5.372;2024-03-06T02:37:35;77.25;;;38.30;;
69998;SDS011;57339;52.156;5.372;2024-03-06T02:40:02;88.75;;;40.10;;
69998;SDS011;57339;52.156;5.372;2024-03-06T02:42:30;77.28;;;39.60;;
69998;SDS011;57339;52.156;5.372;2024-03-06T02:44:56;84.63;;;40.42;;
69998;SDS011;57339;52.156;5.372;2024-03-06T02:47:23;83.93;;;37.87;;
69998;SDS011;57339;52.156;5.372;2024-03-06T02:49:50;78.35;;;39.33;;
69998;SDS011;57339;52.156;5.372;2024-03-06T02:52:17;86.53;;;40.67;;
69998;SDS011;57339;52.156;5.372;2024-03-06T02:54:44;85.07;;;40.45;;
69998;SDS011;57339;52.156;5.372;2024-03-06T02:57:11;78.75;;;38.50;;
69998;SDS011;57339;52.156;5.372;2024-03-06T02:59:39;75.40;;;38.70;;
69998;SDS011;57339;52.156;5.372;2024-03-06T03:02:06;82.75;;;40.42;;
69998;SDS011;57339;52.156;5.372;2024-03-06T03:04:33;84.72;;;41.15;;
69998;SDS011;57339;52.156;5.372;2024-03-06T03:07:00;86.55;;;40.00;;
69998;SDS011;57339;52.156;5.372;2024-03-06T03:09:27;85.60;;;40.03;;
69998;SDS011;57339;52.156;5.372;2024-03-06T03:11:54;81.57;;;38.57;;
69998;SDS011;57339;52.156;5.372;2024-03-06T03:14:20;84.13;;;39.55;;
69998;SDS011;57339;52.156;5.372;2024-03-06T03:16:47;85.63;;;39.20;;
69998;SDS011;57339;52.156;5.372;2024-03-06T03:19:14;88.50;;;39.85;;
69998;SDS011;57339;52.156;5.372;2024-03-06T03:21:44;86.00;;;41.72;;
69998;SDS011;57339;52.156;5.372;2024-03-06T03:24:11;86.63;;;40.50;;
69998;SDS011;57339;52.156;5.372;2024-03-06T03:26:38;88.05;;;40.78;;
69998;SDS011;57339;52.156;5.372;2024-03-06T03:29:04;91.82;;;41.30;;
69998;SDS011;57339;52.156;5.372;2024-03-06T03:31:31;85.57;;;39.45;;
69998;SDS011;57339;52.156;5.372;2024-03-06T03:33:58;85.43;;;40.05;;
69998;SDS011;57339;52.156;5.372;2024-03-06T03:36:25;90.70;;;39.37;;
69998;SDS011;57339;52.156;5.372;2024-03-06T03:38:52;82.28;;;39.67;;
69998;SDS011;57339;52.156;5.372;2024-03-06T03:41:19;88.55;;;41.30;;
69998;SDS011;57339;52.156;5.372;2024-03-06T03:43:46;95.68;;;41.25;;
69998;SDS011;57339;52.156;5.372;2024-03-06T03:46:13;84.70;;;38.42;;
69998;SDS011;57339;52.156;5.372;2024-03-06T03:48:40;88.73;;;40.63;;
69998;SDS011;57339;52.156;5.372;2024-03-06T03:51:06;80.20;;;39.30;;
69998;SDS011;57339;52.156;5.372;2024-03-06T03:53:34;89.05;;;39.95;;
69998;SDS011;57339;52.156;5.372;2024-03-06T03:56:01;79.35;;;38.03;;
69998;SDS011;57339;52.156;5.372;2024-03-06T03:58:28;80.15;;;38.25;;
69998;SDS011;57339;52.156;5.372;2024-03-06T04:00:55;80.77;;;37.83;;
69998;SDS011;57339;52.156;5.372;2024-03-06T04:03:22;79.53;;;36.65;;
69998;SDS011;57339;52.156;5.372;2024-03-06T04:05:50;83.57;;;37.50;;
69998;SDS011;57339;52.156;5.372;2024-03-06T04:08:17;77.35;;;37.28;;
69998;SDS011;57339;52.156;5.372;2024-03-06T04:10:44;88.65;;;38.95;;
69998;SDS011;57339;52.156;5.372;2024-03-06T04:13:12;86.60;;;39.30;;
69998;SDS011;57339;52.156;5.372;2024-03-06T04:15:43;78.72;;;36.55;;
69998;SDS011;57339;52.156;5.372;2024-03-06T04:18:12;79.68;;;38.47;;
69998;SDS011;57339;52.156;5.372;2024-03-06T04:20:39;89.90;;;39.17;;
69998;SDS011;57339;52.156;5.372;2024-03-06T04:23:06;81.97;;;35.30;;
69998;SDS011;57339;52.156;5.372;2024-03-06T04:25:32;90.90;;;39.97;;
69998;SDS011;57339;52.156;5.372;2024-03-06T04:27:59;85.78;;;39.55;;
69998;SDS011;57339;52.156;5.372;2024-03-06T04:30:26;86.93;;;40.35;;
69998;SDS011;57339;52.156;5.372;2024-03-06T04:32:53;88.43;;;39.75;;
69998;SDS011;57339;52.156;5.372;2024-03-06T04:35:20;86.18;;;38.15;;
69998;SDS011;57339;52.156;5.372;2024-03-06T04:37:47;82.70;;;37.77;;
69998;SDS011;57339;52.156;5.372;2024-03-06T04:40:14;90.93;;;38.28;;
69998;SDS011;57339;52.156;5.372;2024-03-06T04:42:49;83.95;;;37.58;;
69998;SDS011;57339;52.156;5.372;2024-03-06T04:45:16;84.55;;;38.00;;
69998;SDS011;57339;52.156;5.372;2024-03-06T04:47:43;81.38;;;36.92;;
69998;SDS011;57339;52.156;5.372;2024-03-06T04:50:11;83.03;;;37.73;;
69998;SDS011;57339;52.156;5.372;2024-03-06T04:52:39;89.47;;;38.72;;
69998;SDS011;57339;52.156;5.372;2024-03-06T04:55:07;89.05;;;39.20;;
69998;SDS011;57339;52.156;5.372;2024-03-06T04:57:34;89.85;;;38.55;;
69998;SDS011;57339;52.156;5.372;2024-03-06T05:00:03;92.60;;;40.08;;
69998;SDS011;57339;52.156;5.372;2024-03-06T05:02:30;90.57;;;38.13;;
69998;SDS011;57339;52.156;5.372;2024-03-06T05:05:13;89.63;;;37.83;;
69998;SDS011;57339;52.156;5.372;2024-03-06T05:07:58;93.60;;;41.63;;
69998;SDS011;57339;52.156;5.372;2024-03-06T05:10:42;90.63;;;39.72;;
69998;SDS011;57339;52.156;5.372;2024-03-06T05:13:27;91.03;;;39.92;;
69998;SDS011;57339;52.156;5.372;2024-03-06T05:16:11;94.63;;;41.10;;
69998;SDS011;57339;52.156;5.372;2024-03-06T05:18:55;94.60;;;40.33;;
69998;SDS011;57339;52.156;5.372;2024-03-06T05:21:40;92.97;;;41.05;;
69998;SDS011;57339;52.156;5.372;2024-03-06T05:24:24;81.72;;;35.67;;
69998;SDS011;57339;52.156;5.372;2024-03-06T05:27:09;98.22;;;41.90;;
69998;SDS011;57339;52.156;5.372;2024-03-06T05:29:54;84.67;;;37.30;;
69998;SDS011;57339;52.156;5.372;2024-03-06T05:32:38;71.13;;;32.00;;
69998;SDS011;57339;52.156;5.372;2024-03-06T05:35:23;86.35;;;36.78;;
69998;SDS011;57339;52.156;5.372;2024-03-06T05:38:07;86.97;;;37.50;;
69998;SDS011;57339;52.156;5.372;2024-03-06T05:40:52;95.18;;;39.92;;
69998;SDS011;57339;52.156;5.372;2024-03-06T05:43:36;90.93;;;40.57;;
69998;SDS011;57339;52.156;5.372;2024-03-06T05:46:21;84.57;;;38.08;;
69998;SDS011;57339;52.156;5.372;2024-03-06T05:49:05;92.22;;;39.33;;
69998;SDS011;57339;52.156;5.372;2024-03-06T05:51:49;92.32;;;40.42;;
69998;SDS011;57339;52.156;5.372;2024-03-06T05:54:34;84.00;;;36.90;;
69998;SDS011;57339;52.156;5.372;2024-03-06T05:57:18;87.67;;;38.40;;
69998;SDS011;57339;52.156;5.372;2024-03-06T06:00:03;91.35;;;39.65;;
69998;SDS011;57339;52.156;5.372;2024-03-06T06:02:30;98.95;;;40.08;;
69998;SDS011;57339;52.156;5.372;2024-03-06T06:04:57;95.47;;;39.25;;
69998;SDS011;57339;52.156;5.372;2024-03-06T06:07:44;102.47;;;42.05;;
69998;SDS011;57339;52.156;5.372;2024-03-06T06:10:11;103.17;;;41.63;;
69998;SDS011;57339;52.156;5.372;2024-03-06T06:12:42;106.78;;;41.83;;
69998;SDS011;57339;52.156;5.372;2024-03-06T06:15:09;125.30;;;41.72;;
69998;SDS011;57339;52.156;5.372;2024-03-06T06:17:36;181.27;;;45.85;;
69998;SDS011;57339;52.156;5.372;2024-03-06T06:20:05;191.23;;;44.63;;
69998;SDS011;57339;52.156;5.372;2024-03-06T06:22:33;195.20;;;42.63;;
69998;SDS011;57339;52.156;5.372;2024-03-06T06:25:00;202.93;;;44.47;;
69998;SDS011;57339;52.156;5.372;2024-03-06T06:27:27;265.48;;;47.80;;
69998;SDS011;57339;52.156;5.372;2024-03-06T06:29:53;304.35;;;49.72;;
69998;SDS011;57339;52.156;5.372;2024-03-06T06:32:20;319.88;;;49.80;;
69998;SDS011;57339;52.156;5.372;2024-03-06T06:34:47;272.47;;;48.33;;
69998;SDS011;57339;52.156;5.372;2024-03-06T06:37:14;294.33;;;49.85;;
69998;SDS011;57339;52.156;5.372;2024-03-06T06:39:43;257.35;;;49.88;;
69998;SDS011;57339;52.156;5.372;2024-03-06T06:42:10;302.35;;;48.63;;
69998;SDS011;57339;52.156;5.372;2024-03-06T06:44:37;292.48;;;50.85;;
69998;SDS011;57339;52.156;5.372;2024-03-06T06:47:04;297.53;;;50.90;;
69998;SDS011;57339;52.156;5.372;2024-03-06T06:49:31;292.52;;;45.28;;
69998;SDS011;57339;52.156;5.372;2024-03-06T06:51:58;245.45;;;40.85;;
69998;SDS011;57339;52.156;5.372;2024-03-06T06:54:24;366.88;;;55.95;;
69998;SDS011;57339;52.156;5.372;2024-03-06T06:56:51;375.33;;;50.00;;
69998;SDS011;57339;52.156;5.372;2024-03-06T06:59:18;403.03;;;55.47;;
69998;SDS011;57339;52.156;5.372;2024-03-06T07:01:47;417.25;;;57.42;;
69998;SDS011;57339;52.156;5.372;2024-03-06T07:04:13;457.80;;;58.15;;
69998;SDS011;57339;52.156;5.372;2024-03-06T07:06:43;511.38;;;64.30;;
69998;SDS011;57339;52.156;5.372;2024-03-06T07:09:10;465.35;;;56.90;;
69998;SDS011;57339;52.156;5.372;2024-03-06T07:11:36;290.97;;;41.83;;
69998;SDS011;57339;52.156;5.372;2024-03-06T07:14:04;405.73;;;52.65;;
69998;SDS011;57339;52.156;5.372;2024-03-06T07:16:31;359.23;;;51.95;;
69998;SDS011;57339;52.156;5.372;2024-03-06T07:18:57;390.67;;;53.75;;
69998;SDS011;57339;52.156;5.372;2024-03-06T07:21:25;417.52;;;57.83;;
69998;SDS011;57339;52.156;5.372;2024-03-06T07:23:51;333.73;;;50.33;;
69998;SDS011;57339;52.156;5.372;2024-03-06T07:26:19;245.38;;;41.60;;
69998;SDS011;57339;52.156;5.372;2024-03-06T07:28:46;377.70;;;54.85;;
69998;SDS011;57339;52.156;5.372;2024-03-06T07:31:13;316.80;;;49.25;;
69998;SDS011;57339;52.156;5.372;2024-03-06T07:33:40;313.33;;;52.63;;
69998;SDS011;57339;52.156;5.372;2024-03-06T07:36:07;199.70;;;43.30;;
69998;SDS011;57339;52.156;5.372;2024-03-06T07:38:35;246.90;;;45.75;;
69998;SDS011;57339;52.156;5.372;2024-03-06T07:41:03;251.55;;;46.55;;
69998;SDS011;57339;52.156;5.372;2024-03-06T07:43:30;295.73;;;49.00;;
69998;SDS011;57339;52.156;5.372;2024-03-06T07:45:56;133.18;;;35.33;;
69998;SDS011;57339;52.156;5.372;2024-03-06T07:48:23;247.50;;;46.73;;
69998;SDS011;57339;52.156;5.372;2024-03-06T07:50:50;274.20;;;51.90;;
69998;SDS011;57339;52.156;5.372;2024-03-06T07:53:17;190.50;;;45.88;;
69998;SDS011;57339;52.156;5.372;2024-03-06T07:55:44;263.45;;;53.53;;
69998;SDS011;57339;52.156;5.372;2024-03-06T07:58:12;259.33;;;53.80;;
69998;SDS011;57339;52.156;5.372;2024-03-06T08:00:38;225.37;;;50.97;;
69998;SDS011;57339;52.156;5.372;2024-03-06T08:03:05;176.05;;;44.90;;
69998;SDS011;57339;52.156;5.372;2024-03-06T08:05:32;216.88;;;49.08;;
69998;SDS011;57339;52.156;5.372;2024-03-06T08:07:59;161.00;;;42.17;;
69998;SDS011;57339;52.156;5.372;2024-03-06T08:10:26;151.70;;;38.17;;
69998;SDS011;57339;52.156;5.372;2024-03-06T08:12:53;185.80;;;47.77;;
69998;SDS011;57339;52.156;5.372;2024-03-06T08:15:20;181.60;;;42.00;;
69998;SDS011;57339;52.156;5.372;2024-03-06T08:17:47;168.88;;;43.00;;
69998;SDS011;57339;52.156;5.372;2024-03-06T08:20:16;140.70;;;38.60;;
69998;SDS011;57339;52.156;5.372;2024-03-06T08:22:43;137.18;;;38.92;;
69998;SDS011;57339;52.156;5.372;2024-03-06T08:25:10;126.53;;;34.90;;
69998;SDS011;57339;52.156;5.372;2024-03-06T08:27:39;162.20;;;40.75;;
69998;SDS011;57339;52.156;5.372;2024-03-06T08:30:07;186.90;;;42.90;;
69998;SDS011;57339;52.156;5.372;2024-03-06T08:32:35;225.70;;;48.90;;
69998;SDS011;57339;52.156;5.372;2024-03-06T08:35:03;209.35;;;45.92;;
69998;SDS011;57339;52.156;5.372;2024-03-06T08:37:30;189.60;;;45.90;;
69998;SDS011;57339;52.156;5.372;2024-03-06T08:40:00;235.85;;;46.80;;
69998;SDS011;57339;52.156;5.372;2024-03-06T08:42:27;194.02;;;45.47;;
69998;SDS011;57339;52.156;5.372;2024-03-06T08:44:55;188.70;;;46.63;;
69998;SDS011;57339;52.156;5.372;2024-03-06T08:47:21;156.40;;;41.28;;
69998;SDS011;57339;52.156;5.372;2024-03-06T08:49:48;159.40;;;40.67;;
69998;SDS011;57339;52.156;5.372;2024-03-06T08:52:15;158.30;;;41.83;;
69998;SDS011;57339;52.156;5.372;2024-03-06T08:54:43;151.52;;;42.10;;
69998;SDS011;57339;52.156;5.372;2024-03-06T08:57:10;153.75;;;37.05;;
69998;SDS011;57339;52.156;5.372;2024-03-06T08:59:37;148.93;;;40.67;;
69998;SDS011;57339;52.156;5.372;2024-03-06T09:02:13;97.43;;;28.30;;
69998;SDS011;57339;52.156;5.372;2024-03-06T09:04:45;123.55;;;37.92;;
69998;SDS011;57339;52.156;5.372;2024-03-06T09:07:13;109.30;;;35.25;;
69998;SDS011;57339;52.156;5.372;2024-03-06T09:09:40;135.35;;;38.10;;
69998;SDS011;57339;52.156;5.372;2024-03-06T09:12:07;149.05;;;41.42;;
69998;SDS011;57339;52.156;5.372;2024-03-06T09:14:36;124.83;;;35.80;;
69998;SDS011;57339;52.156;5.372;2024-03-06T09:17:04;101.32;;;35.75;;
69998;SDS011;57339;52.156;5.372;2024-03-06T09:19:31;114.93;;;37.95;;
69998;SDS011;57339;52.156;5.372;2024-03-06T09:21:59;95.50;;;34.55;;
69998;SDS011;57339;52.156;5.372;2024-03-06T09:24:26;126.22;;;42.05;;
69998;SDS011;57339;52.156;5.372;2024-03-06T09:26:56;116.03;;;39.73;;
69998;SDS011;57339;52.156;5.372;2024-03-06T09:29:22;130.18;;;44.92;;
69998;SDS011;57339;52.156;5.372;2024-03-06T09:31:49;106.65;;;38.90;;
69998;SDS011;57339;52.156;5.372;2024-03-06T09:34:16;113.22;;;43.65;;
69998;SDS011;57339;52.156;5.372;2024-03-06T09:36:49;109.75;;;45.92;;
69998;SDS011;57339;52.156;5.372;2024-03-06T09:39:17;95.77;;;40.47;;
69998;SDS011;57339;52.156;5.372;2024-03-06T09:41:45;85.93;;;39.30;;
69998;SDS011;57339;52.156;5.372;2024-03-06T09:44:14;93.13;;;40.28;;
69998;SDS011;57339;52.156;5.372;2024-03-06T09:46:42;87.45;;;40.30;;
69998;SDS011;57339;52.156;5.372;2024-03-06T09:49:17;84.22;;;39.15;;
69998;SDS011;57339;52.156;5.372;2024-03-06T09:51:45;83.73;;;39.27;;
69998;SDS011;57339;52.156;5.372;2024-03-06T09:54:14;78.05;;;37.15;;
69998;SDS011;57339;52.156;5.372;2024-03-06T09:56:46;75.78;;;35.92;;
69998;SDS011;57339;52.156;5.372;2024-03-06T09:59:14;77.78;;;38.20;;
69998;SDS011;57339;52.156;5.372;2024-03-06T10:01:54;72.43;;;35.42;;
69998;SDS011;57339;52.156;5.372;2024-03-06T10:04:25;75.57;;;37.93;;
69998;SDS011;57339;52.156;5.372;2024-03-06T10:06:54;76.78;;;37.72;;
69998;SDS011;57339;52.156;5.372;2024-03-06T10:09:22;70.38;;;36.63;;
69998;SDS011;57339;52.156;5.372;2024-03-06T10:11:50;63.47;;;31.95;;
69998;SDS011;57339;52.156;5.372;2024-03-06T10:14:17;67.72;;;33.75;;
69998;SDS011;57339;52.156;5.372;2024-03-06T10:16:51;70.77;;;34.93;;
69998;SDS011;57339;52.156;5.372;2024-03-06T10:19:18;63.22;;;33.47;;
69998;SDS011;57339;52.156;5.372;2024-03-06T10:21:49;63.17;;;33.05;;
69998;SDS011;57339;52.156;5.372;2024-03-06T10:24:37;56.22;;;30.88;;
69998;SDS011;57339;52.156;5.372;2024-03-06T10:27:05;54.40;;;28.77;;
69998;SDS011;57339;52.156;5.372;2024-03-06T10:29:32;54.57;;;29.33;;
69998;SDS011;57339;52.156;5.372;2024-03-06T10:31:58;49.20;;;29.08;;
69998;SDS011;57339;52.156;5.372;2024-03-06T10:34:26;52.17;;;27.40;;
69998;SDS011;57339;52.156;5.372;2024-03-06T10:36:55;52.35;;;28.77;;
69998;SDS011;57339;52.156;5.372;2024-03-06T10:39:34;42.75;;;24.35;;
69998;SDS011;57339;52.156;5.372;2024-03-06T10:42:07;45.80;;;26.37;;
69998;SDS011;57339;52.156;5.372;2024-03-06T10:44:34;40.83;;;23.52;;
69998;SDS011;57339;52.156;5.372;2024-03-06T10:47:02;42.67;;;25.08;;
69998;SDS011;57339;52.156;5.372;2024-03-06T10:49:31;40.90;;;24.25;;
69998;SDS011;57339;52.156;5.372;2024-03-06T10:51:59;39.05;;;23.95;;
69998;SDS011;57339;52.156;5.372;2024-03-06T10:54:27;37.57;;;22.90;;
69998;SDS011;57339;52.156;5.372;2024-03-06T10:56:55;41.00;;;23.48;;
69998;SDS011;57339;52.156;5.372;2024-03-06T10:59:24;39.97;;;23.88;;
69998;SDS011;57339;52.156;5.372;2024-03-06T11:01:52;41.58;;;24.13;;
69998;SDS011;57339;52.156;5.372;2024-03-06T11:04:19;40.90;;;23.58;;
69998;SDS011;57339;52.156;5.372;2024-03-06T11:06:46;35.90;;;22.20;;
69998;SDS011;57339;52.156;5.372;2024-03-06T11:09:16;40.33;;;23.75;;
69998;SDS011;57339;52.156;5.372;2024-03-06T11:11:52;41.88;;;24.50;;
69998;SDS011;57339;52.156;5.372;2024-03-06T11:14:23;38.30;;;23.70;;
69998;SDS011;57339;52.156;5.372;2024-03-06T11:28:18;36.05;;;21.17;;
69998;SDS011;57339;52.156;5.372;2024-03-06T11:30:56;32.45;;;19.70;;
69998;SDS011;57339;52.156;5.372;2024-03-06T11:33:28;34.40;;;20.10;;
69998;SDS011;57339;52.156;5.372;2024-03-06T11:38:50;33.97;;;20.73;;
69998;SDS011;57339;52.156;5.372;2024-03-06T11:41:18;33.75;;;20.52;;
69998;SDS011;57339;52.156;5.372;2024-03-06T11:43:52;32.80;;;19.95;;
69998;SDS011;57339;52.156;5.372;2024-03-06T11:46:20;33.97;;;19.63;;
69998;SDS011;57339;52.156;5.372;2024-03-06T11:52:06;30.35;;;18.38;;
69998;SDS011;57339;52.156;5.372;2024-03-06T11:54:34;30.35;;;17.40;;
69998;SDS011;57339;52.156;5.372;2024-03-06T11:57:01;30.77;;;17.70;;
69998;SDS011;57339;52.156;5.372;2024-03-06T11:59:31;30.03;;;18.37;;
69998;SDS011;57339;52.156;5.372;2024-03-06T12:01:59;26.52;;;16.40;;
69998;SDS011;57339;52.156;5.372;2024-03-06T12:04:31;25.08;;;13.93;;
69998;SDS011;57339;52.156;5.372;2024-03-06T12:06:59;26.75;;;15.70;;
69998;SDS011;57339;52.156;5.372;2024-03-06T12:09:27;27.27;;;16.20;;
69998;SDS011;57339;52.156;5.372;2024-03-06T12:11:55;28.40;;;17.77;;
69998;SDS011;57339;52.156;5.372;2024-03-06T12:14:22;27.80;;;17.63;;
69998;SDS011;57339;52.156;5.372;2024-03-06T12:16:59;26.98;;;16.38;;
69998;SDS011;57339;52.156;5.372;2024-03-06T12:19:27;26.00;;;14.98;;
69998;SDS011;57339;52.156;5.372;2024-03-06T12:21:55;22.15;;;13.80;;
69998;SDS011;57339;52.156;5.372;2024-03-06T12:24:21;23.23;;;13.70;;
69998;SDS011;57339;52.156;5.372;2024-03-06T12:26:57;22.67;;;13.05;;
69998;SDS011;57339;52.156;5.372;2024-03-06T12:29:28;22.65;;;13.27;;
69998;SDS011;57339;52.156;5.372;2024-03-06T12:31:56;21.20;;;13.27;;
69998;SDS011;57339;52.156;5.372;2024-03-06T12:34:23;23.50;;;13.40;;
69998;SDS011;57339;52.156;5.372;2024-03-06T12:36:49;23.53;;;13.97;;
69998;SDS011;57339;52.156;5.372;2024-03-06T12:39:16;24.60;;;13.48;;
69998;SDS011;57339;52.156;5.372;2024-03-06T12:41:45;19.85;;;11.38;;
69998;SDS011;57339;52.156;5.372;2024-03-06T12:44:13;18.00;;;10.23;;
69998;SDS011;57339;52.156;5.372;2024-03-06T12:46:40;21.15;;;11.75;;
69998;SDS011;57339;52.156;5.372;2024-03-06T12:49:06;19.83;;;10.90;;
69998;SDS011;57339;52.156;5.372;2024-03-06T12:51:33;16.38;;;9.27;;
69998;SDS011;57339;52.156;5.372;2024-03-06T12:54:01;18.05;;;9.80;;
69998;SDS011;57339;52.156;5.372;2024-03-06T12:56:27;17.30;;;9.27;;
69998;SDS011;57339;52.156;5.372;2024-03-06T12:58:54;20.52;;;10.63;;
69998;SDS011;57339;52.156;5.372;2024-03-06T13:01:21;20.23;;;10.60;;
69998;SDS011;57339;52.156;5.372;2024-03-06T13:03:50;20.10;;;10.93;;
69998;SDS011;57339;52.156;5.372;2024-03-06T13:06:17;16.42;;;8.70;;
69998;SDS011;57339;52.156;5.372;2024-03-06T13:08:45;16.33;;;8.20;;
69998;SDS011;57339;52.156;5.372;2024-03-06T13:11:12;17.02;;;9.25;;
69998;SDS011;57339;52.156;5.372;2024-03-06T13:13:39;17.00;;;9.33;;
69998;SDS011;57339;52.156;5.372;2024-03-06T13:16:06;19.60;;;10.32;;
69998;SDS011;57339;52.156;5.372;2024-03-06T13:18:36;17.80;;;8.50;;
69998;SDS011;57339;52.156;5.372;2024-03-06T13:21:06;16.73;;;8.65;;
69998;SDS011;57339;52.156;5.372;2024-03-06T13:23:33;13.45;;;6.38;;
69998;SDS011;57339;52.156;5.372;2024-03-06T13:26:00;15.67;;;8.13;;
69998;SDS011;57339;52.156;5.372;2024-03-06T13:28:27;14.00;;;7.00;;
69998;SDS011;57339;52.156;5.372;2024-03-06T13:30:55;15.20;;;7.65;;
69998;SDS011;57339;52.156;5.372;2024-03-06T13:33:22;14.30;;;6.68;;
69998;SDS011;57339;52.156;5.372;2024-03-06T13:35:49;14.77;;;7.72;;
69998;SDS011;57339;52.156;5.372;2024-03-06T13:38:16;15.23;;;7.57;;
69998;SDS011;57339;52.156;5.372;2024-03-06T13:40:43;12.82;;;6.15;;
69998;SDS011;57339;52.156;5.372;2024-03-06T13:43:10;13.10;;;6.45;;
69998;SDS011;57339;52.156;5.372;2024-03-06T13:45:37;13.25;;;5.90;;
69998;SDS011;57339;52.156;5.372;2024-03-06T13:48:04;12.10;;;5.57;;
69998;SDS011;57339;52.156;5.372;2024-03-06T13:50:41;12.43;;;5.87;;
69998;SDS011;57339;52.156;5.372;2024-03-06T13:53:09;11.50;;;6.05;;
69998;SDS011;57339;52.156;5.372;2024-03-06T13:55:37;14.63;;;6.57;;
69998;SDS011;57339;52.156;5.372;2024-03-06T13:58:04;16.73;;;6.50;;
69998;SDS011;57339;52.156;5.372;2024-03-06T14:00:31;16.52;;;6.90;;
69998;SDS011;57339;52.156;5.372;2024-03-06T14:02:58;14.03;;;6.93;;
69998;SDS011;57339;52.156;5.372;2024-03-06T14:05:24;13.77;;;7.07;;
69998;SDS011;57339;52.156;5.372;2024-03-06T14:07:51;16.52;;;7.13;;
69998;SDS011;57339;52.156;5.372;2024-03-06T14:10:21;16.38;;;7.60;;
69998;SDS011;57339;52.156;5.372;2024-03-06T14:12:48;17.77;;;7.80;;
69998;SDS011;57339;52.156;5.372;2024-03-06T14:15:18;14.07;;;7.60;;
69998;SDS011;57339;52.156;5.372;2024-03-06T14:17:46;16.45;;;8.15;;
69998;SDS011;57339;52.156;5.372;2024-03-06T14:20:16;16.73;;;8.60;;
69998;SDS011;57339;52.156;5.372;2024-03-06T14:22:42;17.83;;;9.73;;
69998;SDS011;57339;52.156;5.372;2024-03-06T14:25:09;17.98;;;8.57;;
69998;SDS011;57339;52.156;5.372;2024-03-06T14:27:37;15.53;;;8.07;;
69998;SDS011;57339;52.156;5.372;2024-03-06T14:30:04;15.70;;;8.27;;
69998;SDS011;57339;52.156;5.372;2024-03-06T14:32:32;15.98;;;8.27;;
69998;SDS011;57339;52.156;5.372;2024-03-06T14:35:00;18.48;;;8.52;;
69998;SDS011;57339;52.156;5.372;2024-03-06T14:37:27;17.95;;;8.90;;
69998;SDS011;57339;52.156;5.372;2024-03-06T14:39:53;18.83;;;8.10;;
69998;SDS011;57339;52.156;5.372;2024-03-06T14:42:20;17.30;;;8.80;;
69998;SDS011;57339;52.156;5.372;2024-03-06T14:44:47;17.52;;;8.82;;
69998;SDS011;57339;52.156;5.372;2024-03-06T14:47:17;18.38;;;8.90;;